Time;durP1;ratioP1;P1;durP2;ratioP2;P2;SDS_P1;SDS_P2;PMS_P1;PMS_P2;Temp;Humidity;BMP_temperature;BMP_pressure;BME280_temperature;BME280_humidity;BME280_pressure;Samples;Min_cycle;Max_cycle;Signal;HPM_P1;HPM_P2
2021/08/06 00:03:51;;;;;;;4.43;4.00;;;21.40;68.80;;;;;;20743526;28;20049;-20
2021/08/06 00:13:52;;;;;;;4.40;3.75;;;21.40;68.70;;;;;;20742652;28;20453;-20
2021/08/06 00:23:52;;;;;;;4.75;3.85;;;21.40;68.60;;;;;;20742456;28;20124;-20
2021/08/06 00:33:53;;;;;;;4.50;4.10;;;21.40;68.60;;;;;;20741947;28;20062;-20
2021/08/06 00:43:53;;;;;;;4.18;3.60;;;21.40;68.50;;;;;;20741020;28;20057;-20
2021/08/06 00:53:54;;;;;;;5.90;4.03;;;21.30;68.40;;;;;;20740011;28;20038;-20
2021/08/06 01:04:03;;;;;;;6.78;4.57;;;21.40;68.50;;;;;;20739221;28;20057;-20
2021/08/06 01:14:08;;;;;;;4.30;3.83;;;21.30;68.40;;;;;;20738036;28;20450;-20
2021/08/06 01:24:13;;;;;;;4.88;4.00;;;21.30;68.30;;;;;;20738804;28;20038;-20
2021/08/06 01:34:14;;;;;;;4.22;3.65;;;21.30;68.20;;;;;;20739341;28;20060;-20
2021/08/06 01:44:28;;;;;;;4.03;3.63;;;21.30;68.20;;;;;;20738547;28;20306;-20
2021/08/06 01:54:31;;;;;;;3.85;3.40;;;21.30;68.10;;;;;;20737564;28;20402;-20
2021/08/06 02:04:32;;;;;;;4.18;3.47;;;21.30;68.60;;;;;;20736869;28;20064;-20
2021/08/06 02:14:34;;;;;;;4.03;3.63;;;21.40;68.10;;;;;;20736612;28;20041;-20
2021/08/06 02:24:36;;;;;;;3.75;3.38;;;21.30;68.10;;;;;;20753499;28;20038;-20
2021/08/06 02:34:38;;;;;;;3.95;3.35;;;21.30;68.40;;;;;;20751281;28;20030;-20
2021/08/06 02:44:39;;;;;;;3.58;3.17;;;21.30;67.90;;;;;;20749895;28;20041;-20
2021/08/06 02:54:39;;;;;;;4.43;3.75;;;21.30;67.80;;;;;;20748608;28;20561;-21
2021/08/06 03:04:40;;;;;;;3.75;3.35;;;21.30;67.80;;;;;;20748150;28;20062;-21
2021/08/06 03:14:40;;;;;;;4.20;3.80;;;21.30;67.80;;;;;;20747494;28;20068;-21
2021/08/06 03:24:41;;;;;;;3.42;2.70;;;21.30;67.80;;;;;;20746834;28;20071;-20
2021/08/06 03:34:42;;;;;;;3.75;3.35;;;21.30;67.70;;;;;;20750952;28;20054;-20
2021/08/06 03:44:43;;;;;;;3.83;2.83;;;21.30;67.60;;;;;;20749412;28;20030;-20
2021/08/06 03:54:43;;;;;;;3.42;3.13;;;21.30;67.60;;;;;;20746201;28;20539;-21
2021/08/06 04:04:45;;;;;;;3.72;3.05;;;21.30;67.50;;;;;;20745143;28;20064;-20
2021/08/06 04:14:45;;;;;;;3.45;2.97;;;21.30;67.40;;;;;;20748739;28;20038;-21
2021/08/06 04:24:46;;;;;;;3.90;3.38;;;21.30;67.40;;;;;;20755574;28;20494;-21
2021/08/06 04:34:46;;;;;;;3.63;2.93;;;21.20;67.30;;;;;;20742365;28;20034;-20
2021/08/06 04:44:48;;;;;;;3.75;2.97;;;21.20;67.30;;;;;;20740850;28;20471;-20
2021/08/06 04:54:48;;;;;;;3.40;2.50;;;21.20;67.20;;;;;;20740209;28;20045;-22
2021/08/06 05:04:49;;;;;;;3.92;3.35;;;21.30;67.20;;;;;;20740373;28;20113;-21
2021/08/06 05:14:49;;;;;;;3.00;2.60;;;21.20;67.20;;;;;;20737840;28;20049;-20
2021/08/06 05:24:50;;;;;;;3.10;2.72;;;21.20;67.10;;;;;;20741136;28;20064;-20
2021/08/06 05:34:50;;;;;;;3.15;2.65;;;21.20;67.10;;;;;;20741333;28;20038;-20
2021/08/06 05:44:51;;;;;;;4.63;2.60;;;21.20;67.10;;;;;;20754066;28;20113;-20
2021/08/06 05:54:51;;;;;;;2.88;2.47;;;21.20;67.00;;;;;;20754812;28;20053;-19
2021/08/06 06:04:52;;;;;;;2.83;2.50;;;21.20;67.00;;;;;;20755786;28;20030;-20
2021/08/06 06:14:53;;;;;;;3.50;3.15;;;21.20;67.00;;;;;;20752708;28;20430;-20
2021/08/06 06:24:53;;;;;;;3.60;2.53;;;21.30;66.90;;;;;;20753181;28;20042;-21
2021/08/06 06:34:54;;;;;;;6.13;3.22;;;21.20;66.90;;;;;;20753147;28;20112;-20
2021/08/06 06:44:54;;;;;;;2.80;2.45;;;21.20;66.90;;;;;;20750371;28;20108;-20
2021/08/06 06:54:55;;;;;;;3.45;2.53;;;21.30;66.80;;;;;;20749636;28;20065;-21
2021/08/06 07:04:55;;;;;;;3.35;2.83;;;21.20;66.80;;;;;;20747135;28;20065;-20
2021/08/06 07:14:56;;;;;;;2.75;2.08;;;21.20;66.80;;;;;;20748134;28;20549;-21
2021/08/06 07:24:56;;;;;;;2.80;2.20;;;21.20;66.70;;;;;;20747907;28;20096;-21
2021/08/06 07:34:57;;;;;;;3.47;2.38;;;21.20;66.60;;;;;;20746594;28;20100;-20
2021/08/06 07:44:58;;;;;;;4.60;2.63;;;21.30;66.60;;;;;;20745230;28;20522;-20
2021/08/06 07:54:58;;;;;;;3.17;2.45;;;21.30;66.50;;;;;;20744690;28;20046;-21
2021/08/06 08:04:59;;;;;;;3.03;2.45;;;21.30;67.00;;;;;;20743983;28;20054;-21
2021/08/06 08:14:59;;;;;;;2.90;2.30;;;21.30;66.40;;;;;;20742682;28;20040;-21
2021/08/06 08:25:00;;;;;;;3.00;2.70;;;21.30;66.40;;;;;;20742103;28;20414;-21
2021/08/06 08:35:01;;;;;;;2.97;2.40;;;21.30;66.60;;;;;;20741902;28;20049;-21
2021/08/06 08:45:04;;;;;;;2.53;2.10;;;21.30;66.20;;;;;;20741431;28;20033;-22
2021/08/06 08:55:05;;;;;;;2.45;2.15;;;21.30;66.20;;;;;;20741033;28;20041;-21
2021/08/06 09:05:12;;;;;;;2.40;1.95;;;21.30;66.10;;;;;;20742808;28;20042;-21
2021/08/06 09:15:12;;;;;;;3.08;2.47;;;21.30;66.10;;;;;;20740704;28;20056;-20
2021/08/06 09:25:14;;;;;;;2.45;1.92;;;21.30;66.00;;;;;;20739254;28;20117;-20
2021/08/06 09:35:20;;;;;;;2.90;1.92;;;21.40;66.00;;;;;;20738236;28;20029;-20
2021/08/06 09:45:23;;;;;;;2.75;2.03;;;21.30;66.00;;;;;;20753399;28;20117;-20
2021/08/06 09:55:26;;;;;;;1.85;1.55;;;21.40;66.10;;;;;;20738352;28;20434;-21
2021/08/06 10:05:30;;;;;;;2.75;2.17;;;21.40;66.10;;;;;;20738121;28;20072;-20
2021/08/06 10:15:30;;;;;;;2.22;2.03;;;21.30;66.10;;;;;;20737552;28;20037;-20
2021/08/06 10:25:31;;;;;;;3.75;2.63;;;21.40;66.30;;;;;;20737843;28;20192;-21
2021/08/06 10:35:42;;;;;;;2.78;2.00;;;21.40;66.30;;;;;;20746548;28;20045;-21
2021/08/06 10:45:46;;;;;;;2.35;1.95;;;21.40;66.30;;;;;;20748960;28;20050;-21
2021/08/06 10:55:47;;;;;;;2.72;2.22;;;21.40;66.20;;;;;;20771540;23;20050;-18
2021/08/06 11:05:47;;;;;;;2.42;1.95;;;21.40;66.10;;;;;;20995840;28;20051;-18
2021/08/06 11:16:10;;;;;;;2.65;2.08;;;21.40;66.20;;;;;;20996728;28;20103;-19
2021/08/06 11:26:12;;;;;;;2.95;2.42;;;21.40;66.10;;;;;;20998071;28;20040;-19
2021/08/06 11:36:16;;;;;;;2.33;1.85;;;21.40;66.00;;;;;;20998759;28;20032;-19
2021/08/06 11:46:17;;;;;;;2.97;2.58;;;21.40;66.00;;;;;;20999041;28;20044;-19
2021/08/06 11:56:20;;;;;;;2.40;2.15;;;21.40;66.10;;;;;;20997378;28;20056;-19
2021/08/06 12:06:22;;;;;;;2.10;1.80;;;21.40;66.10;;;;;;20993472;28;20033;-18
2021/08/06 12:16:25;;;;;;;2.72;2.22;;;21.40;66.10;;;;;;20990670;28;20492;-19
2021/08/06 12:26:35;;;;;;;2.45;2.00;;;21.40;66.00;;;;;;20988898;28;20033;-18
2021/08/06 12:36:38;;;;;;;2.63;1.92;;;21.40;66.00;;;;;;20988494;28;20033;-18
2021/08/06 12:46:39;;;;;;;2.38;1.90;;;21.50;66.10;;;;;;20987578;28;20040;-18
2021/08/06 12:56:53;;;;;;;2.88;2.00;;;21.40;65.90;;;;;;20991003;28;20136;-19
2021/08/06 13:06:54;;;;;;;2.38;1.85;;;21.40;66.00;;;;;;20992423;28;20115;-19
2021/08/06 13:16:54;;;;;;;2.08;1.77;;;21.40;66.00;;;;;;20988358;28;20043;-19
2021/08/06 13:26:55;;;;;;;2.50;1.98;;;21.40;65.90;;;;;;20988459;28;20040;-19
2021/08/06 13:36:56;;;;;;;2.70;1.98;;;21.50;65.90;;;;;;20987045;28;20115;-19
2021/08/06 13:46:56;;;;;;;1.70;1.50;;;21.40;65.90;;;;;;20987104;28;20142;-19
2021/08/06 13:56:57;;;;;;;3.70;2.00;;;21.40;65.90;;;;;;20989387;28;20046;-19
2021/08/06 14:07:00;;;;;;;2.40;1.60;;;21.40;65.90;;;;;;20990396;28;20060;-19
2021/08/06 14:17:00;;;;;;;2.08;1.42;;;21.40;65.90;;;;;;20993069;28;20090;-19
2021/08/06 14:27:01;;;;;;;2.08;1.65;;;21.40;65.80;;;;;;20999994;28;20374;-19
2021/08/06 14:37:02;;;;;;;2.65;2.08;;;21.40;65.70;;;;;;20999429;28;20064;-18
2021/08/06 14:47:03;;;;;;;2.03;1.57;;;21.40;65.80;;;;;;20999386;28;20024;-19
2021/08/06 14:57:04;;;;;;;1.83;1.23;;;21.40;65.70;;;;;;20998048;28;20799;-19
2021/08/06 15:07:07;;;;;;;1.67;1.33;;;21.40;65.80;;;;;;20997869;28;20036;-19
2021/08/06 15:17:11;;;;;;;2.17;1.65;;;21.40;65.70;;;;;;20997571;28;20036;-19
2021/08/06 15:27:14;;;;;;;1.75;1.40;;;21.40;65.70;;;;;;21012349;28;20085;-20
2021/08/06 15:37:15;;;;;;;1.85;1.45;;;21.50;65.70;;;;;;20996430;28;20083;-19
2021/08/06 15:47:18;;;;;;;2.53;1.70;;;21.40;65.70;;;;;;20996654;28;20056;-20
2021/08/06 15:57:18;;;;;;;1.67;1.38;;;21.40;65.70;;;;;;20994463;28;20041;-18
2021/08/06 16:07:20;;;;;;;1.67;1.42;;;21.40;65.80;;;;;;20993469;28;20047;-20
2021/08/06 16:17:21;;;;;;;2.58;1.60;;;21.40;65.70;;;;;;20990934;28;20463;-20
2021/08/06 16:27:22;;;;;;;1.80;1.17;;;21.40;65.60;;;;;;20990584;28;20066;-20
2021/08/06 16:37:22;;;;;;;2.50;1.98;;;21.40;65.60;;;;;;20995765;28;20392;-20
2021/08/06 16:47:23;;;;;;;2.17;1.90;;;21.40;65.60;;;;;;20994027;28;20039;-20
2021/08/06 16:57:23;;;;;;;3.15;1.50;;;21.40;65.70;;;;;;21039504;22;20131;-20
2021/08/06 17:07:24;;;;;;;5.25;1.45;;;21.40;65.60;;;;;;21069655;28;20044;-20
2021/08/06 17:17:24;;;;;;;6.88;1.70;;;21.50;65.90;;;;;;21069526;28;20309;-21
2021/08/06 17:27:25;;;;;;;4.72;2.50;;;21.40;66.20;;;;;;21068741;28;20485;-20
2021/08/06 17:37:26;;;;;;;1.63;1.13;;;21.40;66.10;;;;;;21068248;28;20028;-20
2021/08/06 17:47:26;;;;;;;2.28;1.52;;;21.40;65.80;;;;;;21068158;28;20047;-20
2021/08/06 17:57:27;;;;;;;2.30;1.20;;;21.40;65.80;;;;;;21084368;28;20052;-20
2021/08/06 18:07:28;;;;;;;3.30;1.50;;;21.40;65.60;;;;;;21085452;28;20119;-19
2021/08/06 18:17:29;;;;;;;1.83;1.33;;;21.40;65.50;;;;;;21085398;28;20032;-20
2021/08/06 18:27:29;;;;;;;1.88;1.25;;;21.40;65.40;;;;;;21084046;28;20028;-20
2021/08/06 18:37:30;;;;;;;2.00;1.55;;;21.50;65.50;;;;;;21082145;28;20492;-20
2021/08/06 18:47:30;;;;;;;2.90;1.40;;;21.40;65.50;;;;;;21081270;28;20403;-20
2021/08/06 18:57:31;;;;;;;2.60;1.52;;;21.40;65.50;;;;;;21079673;28;20119;-20
2021/08/06 19:07:32;;;;;;;2.95;2.15;;;21.40;65.50;;;;;;21078368;28;20069;-19
2021/08/06 19:17:33;;;;;;;1.58;1.15;;;21.40;65.50;;;;;;21078097;28;20047;-18
2021/08/06 19:27:33;;;;;;;1.77;1.00;;;21.40;65.50;;;;;;21077055;28;20047;-19
2021/08/06 19:37:34;;;;;;;2.10;1.23;;;21.40;65.50;;;;;;21076615;28;20393;-18
2021/08/06 19:47:35;;;;;;;1.23;0.90;;;21.40;65.50;;;;;;21079048;28;20048;-19
2021/08/06 19:57:36;;;;;;;1.75;1.08;;;21.40;65.50;;;;;;21074600;28;20040;-19
2021/08/06 20:07:39;;;;;;;1.95;1.10;;;21.30;65.40;;;;;;21073998;28;20062;-19
2021/08/06 20:17:39;;;;;;;3.00;1.17;;;21.40;65.50;;;;;;21072724;28;20504;-19
2021/08/06 20:27:40;;;;;;;2.07;1.10;;;21.30;65.40;;;;;;21072259;28;20115;-19
2021/08/06 20:37:41;;;;;;;2.38;1.40;;;21.30;65.40;;;;;;21072675;28;20450;-18
2021/08/06 20:47:42;;;;;;;1.25;0.95;;;21.30;65.40;;;;;;21072611;28;20061;-19
2021/08/06 20:57:43;;;;;;;1.80;1.20;;;21.30;65.40;;;;;;21077568;28;20508;-19
2021/08/06 21:07:44;;;;;;;1.90;1.25;;;21.30;65.40;;;;;;21079549;28;20078;-20
2021/08/06 21:17:44;;;;;;;1.40;1.08;;;21.30;65.40;;;;;;21077729;28;20047;-19
2021/08/06 21:27:46;;;;;;;1.40;0.95;;;21.30;65.40;;;;;;21069677;28;20060;-19
2021/08/06 21:37:46;;;;;;;1.70;1.10;;;21.30;65.40;;;;;;21068155;28;20099;-20
2021/08/06 21:47:47;;;;;;;1.23;1.13;;;21.30;65.40;;;;;;21067799;28;20451;-19
2021/08/06 21:57:47;;;;;;;1.40;0.85;;;21.20;65.30;;;;;;21076691;28;20044;-19
2021/08/06 22:07:48;;;;;;;1.30;0.90;;;21.30;65.30;;;;;;21073454;28;20551;-19
2021/08/06 22:17:48;;;;;;;1.60;0.98;;;21.20;65.30;;;;;;21074410;28;20024;-19
2021/08/06 22:27:49;;;;;;;1.20;0.90;;;21.30;65.40;;;;;;21068626;28;20573;-19
2021/08/06 22:37:50;;;;;;;1.88;1.25;;;21.20;65.30;;;;;;21073669;28;20036;-19
2021/08/06 22:47:50;;;;;;;1.40;0.80;;;21.20;65.30;;;;;;21081079;28;20028;-19
2021/08/06 22:57:51;;;;;;;1.42;0.98;;;21.30;65.30;;;;;;21104683;22;20400;-21
2021/08/06 23:07:51;;;;;;;1.77;1.33;;;21.20;65.20;;;;;;21083852;28;20556;-20
2021/08/06 23:17:52;;;;;;;1.63;1.00;;;21.20;65.20;;;;;;21082682;28;20054;-20
2021/08/06 23:27:53;;;;;;;1.80;1.10;;;21.20;65.20;;;;;;21081715;28;20060;-19
2021/08/06 23:37:53;;;;;;;1.10;0.82;;;21.30;65.20;;;;;;21079964;28;20093;-19
2021/08/06 23:47:54;;;;;;;1.17;0.85;;;21.20;65.20;;;;;;21082669;28;20040;-20
2021/08/06 23:57:54;;;;;;;1.77;1.07;;;21.20;65.20;;;;;;21078012;28;20040;-20
